createdAt,value
2023-04-25T00:02:03.895Z,101021.55
2023-04-25T00:04:32.328Z,101020.77
2023-04-25T00:07:03.799Z,101018.88
2023-04-25T00:09:31.984Z,101022.87
2023-04-25T00:11:59.927Z,101030.98
2023-04-25T00:14:28.111Z,101032.71
2023-04-25T00:16:56.490Z,101039.70
2023-04-25T00:19:24.435Z,101036.21
2023-04-25T00:21:52.431Z,101024.47
2023-04-25T00:24:20.354Z,101024.47
2023-04-25T00:26:48.299Z,101021.30
2023-04-25T00:29:16.230Z,101023.55
2023-04-25T00:31:44.228Z,101014.33
2023-04-25T00:34:12.062Z,101018.62
2023-04-25T00:36:40.451Z,101020.05
2023-04-25T00:39:08.759Z,101017.70
2023-04-25T00:41:37.883Z,101016.13
2023-04-25T00:44:07.431Z,101014.04
2023-04-25T00:46:35.297Z,101019.47
2023-04-25T00:49:03.433Z,101017.86
2023-04-25T00:51:32.473Z,101015.18
2023-04-25T00:54:00.632Z,101003.45
2023-04-25T00:56:28.620Z,101009.63
2023-04-25T00:58:59.212Z,101010.57
2023-04-25T01:01:27.431Z,101006.29
2023-04-25T01:03:56.440Z,100996.97
2023-04-25T01:06:24.825Z,100989.97
2023-04-25T01:08:54.050Z,100994.41
2023-04-25T01:11:22.268Z,100994.41
2023-04-25T01:13:50.380Z,100994.88
2023-04-25T01:16:18.560Z,100997.42
2023-04-25T01:18:47.750Z,100997.72
2023-04-25T01:21:15.923Z,100986.47
2023-04-25T01:23:44.789Z,100987.26
2023-04-25T01:26:13.833Z,100984.12
2023-04-25T01:28:45.489Z,100983.46
2023-04-25T01:31:14.579Z,100992.03
2023-04-25T01:33:42.773Z,100993.30
2023-04-25T01:36:11.497Z,100992.03
2023-04-25T01:38:39.437Z,101005.21
2023-04-25T01:41:07.731Z,101002.98
2023-04-25T01:43:36.018Z,101005.50
2023-04-25T01:46:04.225Z,100978.66
2023-04-25T01:48:32.208Z,100991.18
2023-04-25T01:51:00.638Z,101004.00
2023-04-25T01:53:28.802Z,101002.20
2023-04-25T01:55:56.859Z,100996.15
2023-04-25T01:58:24.964Z,101001.05
2023-04-25T02:00:52.857Z,100994.84
2023-04-25T02:03:20.796Z,100990.55
2023-04-25T02:05:48.804Z,100975.32
2023-04-25T02:08:16.788Z,100963.25
2023-04-25T02:10:44.844Z,100968.78
2023-04-25T02:13:12.838Z,100969.23
2023-04-25T02:15:40.786Z,100971.63
2023-04-25T02:18:08.785Z,100966.39
2023-04-25T02:20:36.642Z,100979.87
2023-04-25T02:23:05.176Z,100967.66
2023-04-25T02:25:33.138Z,100975.09
2023-04-25T02:28:01.143Z,100973.20
2023-04-25T02:30:29.163Z,100978.07
2023-04-25T02:32:57.091Z,100980.29
2023-04-25T02:35:25.029Z,100971.40
2023-04-25T02:37:52.897Z,100975.19
2023-04-25T02:40:20.835Z,100976.30
2023-04-25T02:42:48.984Z,100973.00
2023-04-25T02:45:17.162Z,100965.84
2023-04-25T02:47:45.074Z,100968.52
2023-04-25T02:50:13.702Z,100965.67
2023-04-25T02:52:41.654Z,100966.46
2023-04-25T02:55:09.929Z,100972.61
2023-04-25T02:57:37.827Z,100976.73
2023-04-25T03:00:07.459Z,100968.98
2023-04-25T03:02:35.452Z,100964.53
2023-04-25T03:05:03.391Z,100967.38
2023-04-25T03:07:31.295Z,100968.65
2023-04-25T03:09:59.290Z,100973.88
2023-04-25T03:12:27.213Z,100964.86
2023-04-25T03:14:55.115Z,100969.30
2023-04-25T03:17:23.167Z,100962.34
2023-04-25T03:19:51.047Z,100962.01
2023-04-25T03:22:18.897Z,100966.46
2023-04-25T03:24:46.890Z,100957.92
2023-04-25T03:27:14.963Z,100957.11
2023-04-25T03:29:42.938Z,100966.13
2023-04-25T03:32:10.919Z,100959.66
2023-04-25T03:34:38.932Z,100959.79
2023-04-25T03:37:06.939Z,100955.66
2023-04-25T03:39:34.887Z,100960.28
2023-04-25T03:42:03.302Z,100959.82
2023-04-25T03:44:31.144Z,100959.69
2023-04-25T03:46:59.399Z,100963.32
2023-04-25T03:49:27.613Z,100967.73
2023-04-25T03:51:55.505Z,100960.34
2023-04-25T03:54:23.386Z,100954.95
2023-04-25T03:56:51.299Z,100958.28
2023-04-25T03:59:19.151Z,100956.23
2023-04-25T04:01:47.014Z,100943.70
2023-04-25T04:04:15.311Z,100943.38
2023-04-25T04:06:44.520Z,100946.71
2023-04-25T04:09:13.654Z,100947.95
2023-04-25T04:11:41.721Z,100942.26
2023-04-25T04:14:10.392Z,100938.76
2023-04-25T04:16:38.548Z,100936.87
2023-04-25T04:19:06.574Z,100946.67
2023-04-25T04:21:35.806Z,100941.87
2023-04-25T04:24:04.120Z,100945.66
2023-04-25T04:26:34.207Z,100941.70
2023-04-25T04:29:02.494Z,100933.27
2023-04-25T04:31:30.509Z,100932.98
2023-04-25T04:33:58.575Z,100933.43
2023-04-25T04:36:26.895Z,100939.58
2023-04-25T04:38:55.030Z,100934.22
2023-04-25T04:41:22.976Z,100940.73
2023-04-25T04:43:51.466Z,100935.82
2023-04-25T04:46:20.768Z,100926.92
2023-04-25T04:48:48.644Z,100935.49
2023-04-25T04:51:16.574Z,100938.20
2023-04-25T04:53:44.436Z,100933.62
2023-04-25T04:56:12.342Z,100931.44
2023-04-25T04:58:40.394Z,100933.20
2023-04-25T05:01:08.451Z,100933.07
2023-04-25T05:03:36.631Z,100925.16
2023-04-25T05:06:04.773Z,100936.27
2023-04-25T05:08:32.642Z,100935.20
2023-04-25T05:11:00.501Z,100929.21
2023-04-25T05:13:28.447Z,100928.13
2023-04-25T05:15:56.263Z,100930.36
2023-04-25T05:18:24.383Z,100935.13
2023-04-25T05:20:52.317Z,100932.91
2023-04-25T05:23:20.175Z,100934.02
2023-04-25T05:25:48.045Z,100921.66
2023-04-25T05:28:15.907Z,100932.94
2023-04-25T05:30:43.742Z,100934.67
2023-04-25T05:33:11.654Z,100925.98
2023-04-25T05:35:39.626Z,100933.43
2023-04-25T05:38:07.538Z,100933.59
2023-04-25T05:40:35.527Z,100941.54
2023-04-25T05:43:03.725Z,100935.52
2023-04-25T05:45:31.798Z,100938.08
2023-04-25T05:47:59.703Z,100940.30
2023-04-25T05:50:27.716Z,100934.77
2023-04-25T05:52:55.610Z,100934.41
2023-04-25T05:55:23.516Z,100929.38
2023-04-25T05:57:51.819Z,100920.19
2023-04-25T06:00:21.189Z,100924.77
2023-04-25T06:02:49.456Z,100925.59
2023-04-25T06:05:17.639Z,100922.70
2023-04-25T06:07:46.128Z,100922.70
2023-04-25T06:10:14.046Z,100925.35
2023-04-25T06:12:42.077Z,100921.49
2023-04-25T06:15:24.561Z,100930.84
2023-04-25T06:17:55.875Z,100923.82
2023-04-25T06:20:26.213Z,100919.96
2023-04-25T06:22:54.846Z,100925.16
2023-04-25T06:25:23.437Z,100921.46
2023-04-25T06:27:51.358Z,100916.52
2023-04-25T06:30:24.573Z,100918.72
2023-04-25T06:32:52.588Z,100911.85
2023-04-25T06:35:20.561Z,100913.84
2023-04-25T06:37:48.512Z,100915.09
2023-04-25T06:40:17.327Z,100916.88
2023-04-25T06:42:45.336Z,100908.35
2023-04-25T06:45:13.276Z,100916.39
2023-04-25T06:47:41.157Z,100920.52
2023-04-25T06:50:09.598Z,100918.06
2023-04-25T06:52:37.670Z,100905.31
2023-04-25T06:55:07.224Z,100903.05
2023-04-25T06:57:35.154Z,100904.43
2023-04-25T07:00:03.105Z,100906.81
2023-04-25T07:02:31.141Z,100910.09
2023-04-25T07:05:02.127Z,100906.91
2023-04-25T07:07:30.123Z,100909.59
2023-04-25T07:09:58.300Z,100909.59
2023-04-25T07:12:26.168Z,100919.56
2023-04-25T07:14:54.135Z,100920.88
2023-04-25T07:17:22.029Z,100921.82
2023-04-25T07:19:49.928Z,100923.82
2023-04-25T07:22:17.932Z,100931.50
2023-04-25T07:24:49.886Z,100954.00
2023-04-25T07:27:17.952Z,100959.69
2023-04-25T07:29:45.939Z,100966.03
2023-04-25T07:32:15.830Z,100966.00
2023-04-25T07:34:43.932Z,100973.13
2023-04-25T07:37:11.999Z,100983.30
2023-04-25T07:39:39.940Z,100970.45
2023-04-25T07:42:10.344Z,100987.22
2023-04-25T07:44:40.895Z,100988.59
2023-04-25T07:47:12.604Z,100992.95
2023-04-25T07:49:40.678Z,100975.45
2023-04-25T07:52:08.906Z,100984.90
2023-04-25T07:54:36.895Z,100991.48
2023-04-25T07:57:04.947Z,100991.77
2023-04-25T07:59:32.810Z,101007.56
2023-04-25T08:02:01.185Z,101003.57
2023-04-25T08:04:29.403Z,101002.43
2023-04-25T08:06:57.288Z,101002.56
2023-04-25T08:09:25.230Z,101006.68
2023-04-25T08:11:53.180Z,101014.10
2023-04-25T08:14:21.084Z,101015.02
2023-04-25T08:16:49.043Z,101029.73
2023-04-25T08:19:17.028Z,101023.72
2023-04-25T08:21:44.978Z,101026.56
2023-04-25T08:24:13.354Z,101024.96
2023-04-25T08:26:42.075Z,101029.87
2023-04-25T08:29:09.932Z,101025.71
2023-04-25T08:31:37.864Z,101037.55
2023-04-25T08:34:05.771Z,101033.10
2023-04-25T08:36:39.164Z,101035.48
2023-04-25T08:39:08.324Z,101039.61
2023-04-25T08:41:38.660Z,101036.27
2023-04-25T08:44:09.534Z,101038.07
2023-04-25T08:46:40.182Z,101039.09
2023-04-25T08:49:08.240Z,101052.36
2023-04-25T08:51:38.487Z,101051.48
2023-04-25T08:56:47.002Z,101061.75
2023-04-25T08:59:15.401Z,101068.19
2023-04-25T09:01:43.515Z,101063.77
2023-04-25T09:04:11.678Z,101065.34
2023-04-25T09:06:39.799Z,101064.92
2023-04-25T09:09:09.773Z,101074.11
2023-04-25T09:11:38.911Z,101079.21
2023-04-25T09:14:22.995Z,101085.26
2023-04-25T09:17:00.062Z,101081.82
2023-04-25T09:19:40.430Z,101091.47
2023-04-25T09:22:10.305Z,101095.46
2023-04-25T09:24:45.785Z,101098.37
2023-04-25T09:27:20.027Z,101103.80
2023-04-25T09:29:48.691Z,101109.09
2023-04-25T09:32:25.728Z,101118.52
2023-04-25T09:34:55.614Z,101118.55
2023-04-25T09:37:25.635Z,101121.13
2023-04-25T09:40:02.788Z,101116.42
2023-04-25T09:42:33.702Z,101115.15
2023-04-25T09:45:04.552Z,101127.51
2023-04-25T09:47:32.524Z,101126.79
2023-04-25T09:50:00.824Z,101130.74
2023-04-25T09:52:28.872Z,101126.82
2023-04-25T09:54:56.993Z,101128.75
2023-04-25T09:57:26.365Z,101129.37
2023-04-25T09:59:56.555Z,101136.56
2023-04-25T10:02:27.604Z,101136.59
2023-04-25T10:04:57.873Z,101133.36
2023-04-25T10:07:33.124Z,101139.57
2023-04-25T10:10:05.172Z,101134.05
2023-04-25T10:12:35.314Z,101137.05
2023-04-25T10:15:05.064Z,101146.57
2023-04-25T10:17:34.904Z,101136.11
2023-04-25T10:20:07.317Z,101135.16
2023-04-25T10:22:38.318Z,101137.38
2023-04-25T10:25:08.354Z,101143.73
2023-04-25T10:27:36.845Z,101125.31
2023-04-25T10:30:06.647Z,101128.20
2023-04-25T10:32:35.531Z,101123.74
2023-04-25T10:35:15.086Z,101121.49
2023-04-25T10:38:01.628Z,101132.73
2023-04-25T10:40:29.759Z,101123.02
2023-04-25T10:42:58.365Z,101122.21
2023-04-25T10:45:26.341Z,101123.45
2023-04-25T10:47:54.267Z,101120.87
2023-04-25T10:50:22.318Z,101116.26
2023-04-25T10:52:50.283Z,101118.28
2023-04-25T10:55:18.246Z,101109.95
2023-04-25T10:57:52.185Z,101117.44
2023-04-25T11:00:25.762Z,101122.90
2023-04-25T11:02:55.854Z,101136.11
2023-04-25T11:05:27.248Z,101122.77
2023-04-25T11:08:07.123Z,101127.21
2023-04-25T11:10:39.314Z,101127.87
2023-04-25T11:13:07.418Z,101121.98
2023-04-25T11:15:35.412Z,101133.36
2023-04-25T11:18:04.228Z,101134.60
2023-04-25T11:20:32.290Z,101127.87
2023-04-25T11:25:33.259Z,101134.93
2023-04-25T11:28:03.759Z,101128.06
2023-04-25T11:30:32.892Z,101128.84
2023-04-25T11:33:01.193Z,101122.70
2023-04-25T11:35:29.196Z,101117.14
2023-04-25T11:37:57.217Z,101107.27
2023-04-25T11:40:25.150Z,101116.36
2023-04-25T11:42:53.821Z,101118.35
2023-04-25T11:45:25.332Z,101117.11
2023-04-25T11:47:53.928Z,101123.95
2023-04-25T11:50:21.905Z,101124.34
2023-04-25T11:52:50.664Z,101132.31
2023-04-25T11:55:20.863Z,101125.77
2023-04-25T11:57:55.061Z,101122.93
2023-04-25T12:00:24.037Z,101125.64
2023-04-25T12:02:56.622Z,101127.67
2023-04-25T12:05:33.860Z,101131.20
2023-04-25T12:08:18.684Z,101127.96
2023-04-25T12:10:49.263Z,101126.88
2023-04-25T12:13:25.213Z,101118.28
2023-04-25T12:15:54.091Z,101133.91
2023-04-25T12:18:23.747Z,101142.58
2023-04-25T12:20:52.099Z,101157.98
2023-04-25T12:23:29.222Z,101158.84
2023-04-25T12:25:58.205Z,101159.81
2023-04-25T12:28:29.618Z,101165.54
2023-04-25T12:31:00.766Z,101170.73
2023-04-25T12:33:31.048Z,101173.74
2023-04-25T12:36:00.180Z,101183.75
2023-04-25T12:38:33.286Z,101179.08
2023-04-25T12:41:01.249Z,101171.95
2023-04-25T12:43:29.258Z,101176.85
2023-04-25T12:45:58.237Z,101177.96
2023-04-25T12:48:26.487Z,101170.15
2023-04-25T12:50:54.773Z,101177.27
2023-04-25T12:53:24.498Z,101173.25
2023-04-25T12:55:53.129Z,101173.55
2023-04-25T12:58:22.299Z,101167.89
2023-04-25T13:00:50.833Z,101178.03
2023-04-25T13:03:18.873Z,101178.78
2023-04-25T13:05:47.125Z,101160.14
2023-04-25T13:08:14.945Z,101174.59
2023-04-25T13:10:42.944Z,101168.97
2023-04-25T13:13:10.984Z,101160.99
2023-04-25T13:15:39.119Z,101157.46
2023-04-25T13:18:09.967Z,101163.70
2023-04-25T13:20:37.915Z,101168.28
2023-04-25T13:23:05.880Z,101169.98
2023-04-25T13:25:33.901Z,101170.38
2023-04-25T13:28:01.962Z,101171.00
2023-04-25T13:30:29.953Z,101173.98
2023-04-25T13:33:05.340Z,101177.73
2023-04-25T13:35:33.312Z,101175.28
2023-04-25T13:38:01.433Z,101175.09
2023-04-25T13:40:29.849Z,101176.75
2023-04-25T13:42:58.241Z,101171.36
2023-04-25T13:45:26.256Z,101180.84
2023-04-25T13:47:54.241Z,101179.86
2023-04-25T13:50:22.659Z,101177.18
2023-04-25T13:52:50.826Z,101182.70
2023-04-25T13:55:18.928Z,101178.84
2023-04-25T13:57:46.861Z,101174.70
2023-04-25T14:00:15.390Z,101185.52
2023-04-25T14:02:43.449Z,101179.44
2023-04-25T14:05:11.692Z,101179.53
2023-04-25T14:07:39.777Z,101188.95
2023-04-25T14:10:09.190Z,101180.19
2023-04-25T14:12:37.318Z,101187.09
2023-04-25T14:15:05.887Z,101185.62
2023-04-25T14:17:33.973Z,101177.70
2023-04-25T14:20:01.982Z,101180.74
2023-04-25T14:22:29.898Z,101184.02
2023-04-25T14:24:57.801Z,101197.16
2023-04-25T14:27:28.542Z,101196.86
2023-04-25T14:29:57.093Z,101207.88
2023-04-25T14:32:24.993Z,101209.75
2023-04-25T14:34:53.215Z,101219.49
2023-04-25T14:37:21.178Z,101214.91
2023-04-25T14:39:49.019Z,101222.11
2023-04-25T14:42:16.928Z,101226.62
2023-04-25T14:44:44.769Z,101228.62
2023-04-25T14:47:12.734Z,101228.48
2023-04-25T14:49:40.757Z,101219.82
2023-04-25T14:52:08.727Z,101221.29
2023-04-25T14:54:36.698Z,101232.77
2023-04-25T14:57:04.669Z,101217.01
2023-04-25T14:59:32.553Z,101220.93
2023-04-25T15:02:00.483Z,101219.13
2023-04-25T15:04:28.891Z,101221.81
2023-04-25T15:06:57.251Z,101217.95
2023-04-25T15:09:26.444Z,101220.84
2023-04-25T15:11:54.387Z,101227.38
2023-04-25T15:14:22.426Z,101218.05
2023-04-25T15:16:50.310Z,101228.98
2023-04-25T15:19:18.412Z,101229.66
2023-04-25T15:21:46.391Z,101220.80
2023-04-25T15:24:16.468Z,101221.09
2023-04-25T15:26:44.432Z,101216.91
2023-04-25T15:29:12.897Z,101216.55
2023-04-25T15:31:40.805Z,101219.39
2023-04-25T15:34:08.757Z,101216.02
2023-04-25T15:36:36.751Z,101215.50
2023-04-25T15:39:04.828Z,101217.89
2023-04-25T15:41:32.718Z,101222.89
2023-04-25T15:44:01.911Z,101217.23
2023-04-25T15:46:32.437Z,101226.26
2023-04-25T15:49:00.437Z,101233.48
2023-04-25T15:51:29.466Z,101234.89
2023-04-25T15:53:57.790Z,101231.66
2023-04-25T15:56:25.719Z,101223.84
2023-04-25T15:58:53.961Z,101220.54
2023-04-25T16:01:25.572Z,101228.06
2023-04-25T16:03:54.318Z,101225.54
2023-04-25T16:06:22.453Z,101228.02
2023-04-25T16:08:50.447Z,101225.05
2023-04-25T16:11:18.371Z,101226.23
2023-04-25T16:13:46.500Z,101215.30
2023-04-25T16:16:16.584Z,101219.85
2023-04-25T16:18:44.465Z,101227.86
2023-04-25T16:21:17.344Z,101227.60
2023-04-25T16:23:45.338Z,101234.34
2023-04-25T16:26:13.357Z,101256.67
2023-04-25T16:28:41.204Z,101246.34
2023-04-25T16:31:09.404Z,101259.65
2023-04-25T16:33:37.464Z,101266.09
2023-04-25T16:36:05.586Z,101285.58
2023-04-25T16:38:33.425Z,101288.20
2023-04-25T16:41:01.327Z,101296.17
2023-04-25T16:43:29.339Z,101301.60
2023-04-25T16:45:57.438Z,101304.64
2023-04-25T16:48:25.901Z,101305.59
2023-04-25T16:50:55.618Z,101313.41
2023-04-25T16:53:24.494Z,101307.20
2023-04-25T16:55:52.561Z,101310.07
2023-04-25T16:58:21.106Z,101311.97
2023-04-25T17:00:49.250Z,101319.42
2023-04-25T17:03:17.458Z,101323.84
2023-04-25T17:05:45.754Z,101327.34
2023-04-25T17:08:13.849Z,101325.44
2023-04-25T17:10:41.865Z,101319.88
2023-04-25T17:13:09.939Z,101331.78
2023-04-25T17:15:37.834Z,101330.80
2023-04-25T17:18:05.974Z,101329.20
2023-04-25T17:20:34.056Z,101338.59
2023-04-25T17:23:02.688Z,101327.14
2023-04-25T17:25:32.146Z,101336.20
2023-04-25T17:28:00.154Z,101327.30
2023-04-25T17:30:28.863Z,101339.53
2023-04-25T17:32:57.011Z,101338.88
2023-04-25T17:35:25.092Z,101342.54
2023-04-25T17:37:53.849Z,101350.29
2023-04-25T17:40:22.229Z,101346.66
2023-04-25T17:42:50.065Z,101347.12
2023-04-25T17:45:18.837Z,101353.66
2023-04-25T17:47:47.039Z,101360.30
2023-04-25T17:50:17.971Z,101349.80
2023-04-25T17:52:46.773Z,101353.14
2023-04-25T17:55:14.753Z,101363.14
2023-04-25T17:57:43.144Z,101363.02
2023-04-25T18:00:13.721Z,101360.46
2023-04-25T18:02:41.941Z,101366.84
2023-04-25T18:05:12.875Z,101367.16
2023-04-25T18:07:40.834Z,101372.76
2023-04-25T18:10:10.224Z,101375.93
2023-04-25T18:12:38.433Z,101378.19
2023-04-25T18:15:08.234Z,101379.76
2023-04-25T18:17:41.924Z,101375.30
2023-04-25T18:20:17.045Z,101388.95
2023-04-25T18:22:46.441Z,101388.16
2023-04-25T18:25:15.132Z,101392.61
2023-04-25T18:27:43.844Z,101390.22
2023-04-25T18:30:15.132Z,101393.36
2023-04-25T18:32:43.611Z,101401.14
2023-04-25T18:35:11.702Z,101409.87
2023-04-25T18:37:42.036Z,101405.10
2023-04-25T18:40:14.288Z,101419.98
2023-04-25T18:42:42.500Z,101421.25
2023-04-25T18:45:10.966Z,101422.66
2023-04-25T18:47:38.952Z,101427.59
2023-04-25T18:50:08.139Z,101430.12
2023-04-25T18:52:36.280Z,101431.20
2023-04-25T18:55:04.488Z,101442.60
2023-04-25T18:57:32.455Z,101434.17
2023-04-25T19:00:00.544Z,101442.24
2023-04-25T19:02:28.615Z,101449.67
2023-04-25T19:04:56.536Z,101450.75
2023-04-25T19:07:24.753Z,101455.81
2023-04-25T19:09:52.796Z,101461.63
2023-04-25T19:12:20.720Z,101459.41
2023-04-25T19:14:48.708Z,101469.23
2023-04-25T19:17:16.632Z,101472.98
2023-04-25T19:19:44.568Z,101471.09
2023-04-25T19:22:12.931Z,101470.76
2023-04-25T19:24:41.140Z,101478.51
2023-04-25T19:27:09.065Z,101486.88
2023-04-25T19:29:37.484Z,101485.41
2023-04-25T19:32:06.532Z,101490.41
2023-04-25T19:34:34.497Z,101490.09
2023-04-25T19:37:02.658Z,101489.73
2023-04-25T19:39:30.626Z,101491.13
2023-04-25T19:41:58.777Z,101489.20
2023-04-25T19:44:27.113Z,101490.58
2023-04-25T19:46:55.046Z,101487.83
2023-04-25T19:49:23.513Z,101498.16
2023-04-25T19:51:51.399Z,101490.97
2023-04-25T19:54:20.242Z,101491.43
2023-04-25T19:56:49.032Z,101496.79
2023-04-25T19:59:17.595Z,101494.40
2023-04-25T20:01:45.894Z,101507.38
2023-04-25T20:04:14.149Z,101501.37
2023-04-25T20:06:42.126Z,101510.39
2023-04-25T20:09:10.827Z,101500.22
2023-04-25T20:11:38.905Z,101498.30
2023-04-25T20:14:07.069Z,101502.41
2023-04-25T20:16:35.142Z,101496.82
2023-04-25T20:19:03.010Z,101506.63
2023-04-25T20:21:31.043Z,101508.23
2023-04-25T20:23:59.634Z,101509.02
2023-04-25T20:26:27.708Z,101511.08
2023-04-25T20:28:55.788Z,101511.99
2023-04-25T20:31:24.090Z,101515.79
2023-04-25T20:33:52.067Z,101508.82
2023-04-25T20:36:21.138Z,101513.70
2023-04-25T20:38:49.374Z,101524.32
2023-04-25T20:41:17.493Z,101513.70
2023-04-25T20:43:45.494Z,101516.34
2023-04-25T20:46:13.864Z,101522.85
2023-04-25T20:48:41.965Z,101519.19
2023-04-25T20:51:10.192Z,101518.86
2023-04-25T20:53:38.016Z,101521.70
2023-04-25T20:56:07.625Z,101519.32
2023-04-25T20:58:35.614Z,101517.59
2023-04-25T21:01:05.538Z,101520.10
2023-04-25T21:03:35.118Z,101520.66
2023-04-25T21:06:03.337Z,101522.27
2023-04-25T21:08:31.270Z,101525.50
2023-04-25T21:10:59.089Z,101522.98
2023-04-25T21:13:28.618Z,101517.59
2023-04-25T21:15:56.765Z,101520.79
2023-04-25T21:18:24.742Z,101516.34
2023-04-25T21:20:52.792Z,101512.23
2023-04-25T21:23:21.268Z,101503.66
2023-04-25T21:25:50.162Z,101514.28
2023-04-25T21:28:18.191Z,101513.14
2023-04-25T21:30:46.646Z,101513.73
2023-04-25T21:33:15.220Z,101513.37
2023-04-25T21:35:43.422Z,101511.34
2023-04-25T21:38:11.383Z,101523.90
2023-04-25T21:40:39.565Z,101523.54
2023-04-25T21:43:07.620Z,101528.57
2023-04-25T21:45:51.420Z,101526.16
2023-04-25T21:48:24.343Z,101534.82
2023-04-25T21:50:52.218Z,101536.23
2023-04-25T21:53:20.157Z,101540.45
2023-04-25T21:55:48.169Z,101551.01
2023-04-25T21:58:16.253Z,101549.53
2023-04-25T22:00:45.776Z,101543.48
2023-04-25T22:03:16.186Z,101546.46
2023-04-25T22:05:45.600Z,101559.90
2023-04-25T22:08:13.939Z,101558.30
2023-04-25T22:10:41.929Z,101557.97
2023-04-25T22:13:09.950Z,101558.88
2023-04-25T22:15:37.879Z,101559.80
2023-04-25T22:18:06.913Z,101552.51
2023-04-25T22:20:35.924Z,101556.47
2023-04-25T22:23:04.541Z,101558.76
2023-04-25T22:25:33.097Z,101556.47
2023-04-25T22:28:01.031Z,101551.98
2023-04-25T22:30:31.270Z,101563.40
2023-04-25T22:32:59.424Z,101563.40
2023-04-25T22:35:27.492Z,101561.80
2023-04-25T22:37:55.742Z,101564.64
2023-04-25T22:40:23.568Z,101565.10
2023-04-25T22:42:51.649Z,101565.55
2023-04-25T22:45:19.651Z,101561.93
2023-04-25T22:47:47.717Z,101565.88
2023-04-25T22:50:17.765Z,101561.34
2023-04-25T22:52:45.678Z,101561.70
2023-04-25T22:55:14.553Z,101571.84
2023-04-25T22:57:42.755Z,101569.91
2023-04-25T23:00:17.285Z,101569.45
2023-04-25T23:02:47.061Z,101566.15
2023-04-25T23:05:16.446Z,101560.42
2023-04-25T23:07:47.678Z,101580.27
2023-04-25T23:10:15.669Z,101583.48
2023-04-25T23:12:43.590Z,101577.10
2023-04-25T23:15:12.251Z,101577.10
2023-04-25T23:17:40.656Z,101575.59
2023-04-25T23:20:11.575Z,101566.38
2023-04-25T23:22:40.288Z,101565.10
2023-04-25T23:25:09.104Z,101572.52
2023-04-25T23:27:37.188Z,101575.37
2023-04-25T23:30:05.656Z,101581.05
2023-04-25T23:32:33.858Z,101581.05
2023-04-25T23:35:02.426Z,101580.73
2023-04-25T23:37:31.752Z,101574.19
2023-04-25T23:39:59.700Z,101572.16
2023-04-25T23:42:27.798Z,101581.16
2023-04-25T23:44:55.661Z,101578.73
2023-04-25T23:47:23.610Z,101575.79
2023-04-25T23:49:51.574Z,101580.73
2023-04-25T23:52:19.471Z,101581.98
2023-04-25T23:54:47.490Z,101584.46
2023-04-25T23:57:15.386Z,101581.61
2023-04-25T23:59:43.377Z,101592.30
